Time;durP1;ratioP1;P1;durP2;ratioP2;P2;SDS_P1;SDS_P2;PMS_P1;PMS_P2;Temp;Humidity;BMP_temperature;BMP_pressure;BME280_temperature;BME280_humidity;BME280_pressure;Samples;Min_cycle;Max_cycle;Signal;HPM_P1;HPM_P2
2021/07/16 00:01:48;;;;;;;15.48;11.00;;;;;;;21.41;74.34;100491.66;5083886;28;20024;-71
2021/07/16 00:04:14;;;;;;;12.82;11.40;;;;;;;21.42;74.31;100494.22;5084225;28;20030;-72
2021/07/16 00:06:39;;;;;;;13.77;11.27;;;;;;;21.41;74.29;100494.28;5083994;28;20035;-71
2021/07/16 00:09:05;;;;;;;12.63;11.32;;;;;;;21.40;74.34;100501.38;5083947;28;20488;-72
2021/07/16 00:11:31;;;;;;;11.65;10.45;;;;;;;21.35;74.21;100494.63;5083252;28;20048;-74
2021/07/16 00:13:57;;;;;;;11.52;10.43;;;;;;;21.32;74.33;100500.06;5083717;28;20247;-67
2021/07/16 00:16:22;;;;;;;12.20;10.88;;;;;;;21.28;74.30;100492.31;5083669;28;20024;-68
2021/07/16 00:18:48;;;;;;;12.40;11.20;;;;;;;21.26;74.44;100493.34;5083490;28;20396;-68
2021/07/16 00:21:14;;;;;;;14.05;11.35;;;;;;;21.24;74.41;100503.97;5083582;28;20104;-69
2021/07/16 00:23:40;;;;;;;11.60;10.40;;;;;;;21.22;74.34;100513.75;5083679;28;20017;-68
2021/07/16 00:26:05;;;;;;;12.57;11.05;;;;;;;21.19;74.68;100511.28;5083872;28;20023;-67
2021/07/16 00:28:31;;;;;;;12.10;10.73;;;;;;;21.20;74.48;100509.50;5083850;28;20466;-68
2021/07/16 00:30:56;;;;;;;11.57;10.48;;;;;;;21.20;74.46;100505.03;5083544;28;20013;-69
2021/07/16 00:33:22;;;;;;;13.48;11.50;;;;;;;21.18;74.24;100502.50;5083549;28;20024;-68
2021/07/16 00:35:47;;;;;;;12.90;11.60;;;;;;;21.20;74.26;100510.31;5083443;28;20070;-68
2021/07/16 00:38:14;;;;;;;12.80;11.45;;;;;;;21.18;74.36;100510.41;5083357;28;20032;-68
2021/07/16 00:40:40;;;;;;;13.88;11.68;;;;;;;21.16;74.33;100509.66;5083426;28;20047;-68
2021/07/16 00:43:05;;;;;;;13.45;12.05;;;;;;;21.15;74.52;100509.72;5083406;28;20028;-67
2021/07/16 00:45:31;;;;;;;16.42;11.32;;;;;;;21.17;74.33;100515.75;5083303;28;20052;-67
2021/07/16 00:47:56;;;;;;;13.50;12.20;;;;;;;21.16;74.11;100517.56;5083342;28;20021;-68
2021/07/16 00:50:26;;;;;;;13.75;11.68;;;;;;;21.15;74.23;100525.56;5083212;28;20031;-67
2021/07/16 00:52:54;;;;;;;13.10;11.70;;;;;;;21.12;74.26;100517.81;5083323;28;20046;-67
2021/07/16 00:55:20;;;;;;;14.50;13.05;;;;;;;21.13;74.20;100519.50;5083406;28;20057;-67
2021/07/16 00:57:46;;;;;;;14.10;12.70;;;;;;;21.12;74.24;100528.38;5083217;28;20074;-67
2021/07/16 01:00:13;;;;;;;14.70;12.18;;;;;;;21.11;74.20;100522.22;5083385;28;20036;-67
2021/07/16 01:02:39;;;;;;;14.15;11.70;;;;;;;21.09;74.40;100517.94;5083228;28;20041;-67
2021/07/16 01:05:05;;;;;;;14.15;12.75;;;;;;;21.12;74.41;100525.72;5083202;28;20028;-67
2021/07/16 01:07:31;;;;;;;13.95;12.50;;;;;;;21.15;74.36;100521.13;5083215;28;20024;-67
2021/07/16 01:09:58;;;;;;;14.63;12.88;;;;;;;21.18;74.04;100530.69;5083067;28;20024;-68
2021/07/16 01:12:24;;;;;;;13.85;12.45;;;;;;;21.18;74.17;100523.59;5082967;28;20028;-69
2021/07/16 01:14:51;;;;;;;12.80;11.55;;;;;;;21.21;73.76;100525.25;5083247;28;20436;-69
2021/07/16 01:17:16;;;;;;;13.57;11.13;;;;;;;21.22;73.82;100526.09;5083004;28;20039;-68
2021/07/16 01:20:04;;;;;;;13.55;12.10;;;;;;;21.28;73.63;100524.00;5083301;28;20024;-68
2021/07/16 01:22:32;;;;;;;12.93;11.45;;;;;;;21.29;73.37;100535.41;5085796;28;20030;-68
2021/07/16 01:25:01;;;;;;;13.18;11.90;;;;;;;21.30;73.54;100531.84;5087177;28;20077;-69
2021/07/16 01:27:29;;;;;;;13.50;12.10;;;;;;;21.33;73.48;100536.94;5086947;28;20017;-68
2021/07/16 01:29:54;;;;;;;13.55;12.18;;;;;;;21.30;73.28;100530.06;5087138;28;20469;-69
2021/07/16 01:32:20;;;;;;;15.85;13.07;;;;;;;21.30;73.14;100530.06;5086818;28;20087;-69
2021/07/16 01:34:47;;;;;;;14.02;12.52;;;;;;;21.33;73.13;100536.09;5086876;28;20477;-68
2021/07/16 01:37:14;;;;;;;13.32;12.00;;;;;;;21.33;73.12;100539.59;5086726;28;20070;-68
2021/07/16 01:39:40;;;;;;;14.32;12.82;;;;;;;21.28;72.82;100536.31;5086717;28;20031;-68
2021/07/16 01:42:07;;;;;;;14.43;12.90;;;;;;;21.29;73.17;100538.88;5086511;28;20016;-68
2021/07/16 01:44:33;;;;;;;16.70;12.48;;;;;;;21.27;72.99;100537.28;5086166;28;20020;-67
2021/07/16 01:47:00;;;;;;;14.52;12.18;;;;;;;21.25;73.28;100542.63;5086703;28;20310;-67
2021/07/16 01:49:27;;;;;;;16.45;12.65;;;;;;;21.24;72.94;100543.56;5086672;28;20095;-68
2021/07/16 01:51:53;;;;;;;13.73;12.40;;;;;;;21.24;72.95;100546.22;5086683;28;20146;-68
2021/07/16 01:54:18;;;;;;;12.57;11.10;;;;;;;21.27;72.88;100542.56;5086072;28;20085;-68
2021/07/16 01:56:44;;;;;;;14.32;12.93;;;;;;;21.25;72.65;100545.28;5086382;28;20082;-68
2021/07/16 01:59:10;;;;;;;14.55;13.15;;;;;;;21.22;72.86;100545.44;5086504;28;20025;-68
2021/07/16 02:01:35;;;;;;;14.68;13.20;;;;;;;21.22;72.72;100552.50;5086416;28;20074;-68
2021/07/16 02:04:01;;;;;;;14.75;12.18;;;;;;;21.20;72.61;100544.66;5086217;28;20332;-68
2021/07/16 02:06:27;;;;;;;14.40;12.90;;;;;;;21.22;72.57;100555.13;5086067;28;20044;-68
2021/07/16 02:08:52;;;;;;;14.88;13.02;;;;;;;21.22;72.75;100553.34;5086171;28;20043;-68
2021/07/16 02:11:21;;;;;;;15.73;12.85;;;;;;;21.21;72.45;100553.44;5086021;28;20021;-68
2021/07/16 02:13:50;;;;;;;15.98;14.27;;;;;;;21.17;72.51;100552.72;5086055;28;20035;-68
2021/07/16 02:16:16;;;;;;;15.43;13.77;;;;;;;21.17;72.59;100558.00;5086287;28;20095;-68
2021/07/16 02:18:50;;;;;;;14.80;13.25;;;;;;;21.15;72.53;100549.31;5085922;28;20029;-70
2021/07/16 02:21:16;;;;;;;15.18;13.68;;;;;;;21.20;72.59;100559.66;5086213;28;20032;-68
2021/07/16 02:23:42;;;;;;;15.18;13.57;;;;;;;21.19;72.49;100561.44;5085772;28;20113;-68
2021/07/16 02:26:07;;;;;;;14.60;13.00;;;;;;;21.17;72.25;100563.28;5085787;28;20108;-68
2021/07/16 02:28:33;;;;;;;14.70;13.20;;;;;;;21.15;72.11;100559.88;5085844;28;20084;-68
2021/07/16 02:31:01;;;;;;;14.48;13.05;;;;;;;21.18;72.32;100562.38;5085527;28;20036;-68
2021/07/16 02:33:26;;;;;;;15.13;12.50;;;;;;;21.20;72.13;100571.03;5084756;28;20016;-68
2021/07/16 02:35:52;;;;;;;14.93;13.30;;;;;;;21.14;72.11;100552.88;5085694;28;20024;-67
2021/07/16 02:38:18;;;;;;;19.77;13.82;;;;;;;21.21;71.97;100571.91;5085576;28;20024;-68
2021/07/16 02:40:44;;;;;;;14.40;13.00;;;;;;;21.20;72.33;100570.22;5085745;28;20090;-69
2021/07/16 02:43:09;;;;;;;15.65;13.95;;;;;;;21.21;72.11;100553.44;5085481;28;20386;-69
2021/07/16 02:45:35;;;;;;;14.73;13.05;;;;;;;21.22;72.23;100566.56;5085477;28;20028;-68
2021/07/16 02:48:01;;;;;;;17.00;13.85;;;;;;;21.21;72.13;100564.84;5085500;28;20052;-69
2021/07/16 02:50:32;;;;;;;14.68;13.20;;;;;;;21.20;71.97;100560.47;5085641;28;20017;-68
2021/07/16 02:53:00;;;;;;;16.00;14.30;;;;;;;21.19;71.97;100556.16;5085160;28;20075;-67
2021/07/16 02:55:26;;;;;;;14.98;12.70;;;;;;;21.23;72.08;100564.78;5085335;28;20024;-68
2021/07/16 02:57:51;;;;;;;14.80;13.30;;;;;;;21.22;71.92;100566.56;5085147;28;20084;-68
2021/07/16 03:00:20;;;;;;;14.50;13.02;;;;;;;21.22;71.94;100563.91;5085233;28;20025;-68
2021/07/16 03:02:48;;;;;;;15.48;13.20;;;;;;;21.20;72.03;100557.00;5085065;28;20017;-68
2021/07/16 03:05:18;;;;;;;15.20;12.75;;;;;;;21.27;71.60;100571.59;5085139;28;20107;-68
2021/07/16 03:07:45;;;;;;;14.75;13.07;;;;;;;21.27;71.66;100571.59;5085141;28;20020;-68
2021/07/16 03:10:15;;;;;;;14.05;12.75;;;;;;;21.29;71.48;100573.22;5085193;28;20043;-68
2021/07/16 03:12:41;;;;;;;14.55;13.15;;;;;;;21.32;71.44;100574.88;5084963;28;20080;-68
2021/07/16 03:15:10;;;;;;;15.73;14.07;;;;;;;21.40;71.28;100580.59;5084894;28;20054;-68
2021/07/16 03:17:37;;;;;;;14.25;12.73;;;;;;;21.47;71.06;100570.56;5084772;28;20174;-68
2021/07/16 03:20:06;;;;;;;14.35;12.85;;;;;;;21.62;71.10;100578.63;5084822;28;20021;-68
2021/07/16 03:22:31;;;;;;;14.27;12.80;;;;;;;21.82;70.92;100587.31;5084449;28;20388;-68
2021/07/16 03:24:56;;;;;;;13.63;12.32;;;;;;;22.04;70.32;100576.44;5084815;28;20021;-68
2021/07/16 03:27:21;;;;;;;16.80;12.52;;;;;;;22.31;69.73;100580.31;5084501;28;20031;-68
2021/07/16 03:29:47;;;;;;;13.23;11.80;;;;;;;22.52;69.20;100576.44;5084712;28;20476;-69
2021/07/16 03:32:12;;;;;;;15.65;11.85;;;;;;;22.71;68.80;100583.41;5083257;28;20021;-68
2021/07/16 03:34:37;;;;;;;13.07;11.68;;;;;;;22.93;68.04;100581.28;5084355;28;20036;-69
2021/07/16 03:37:03;;;;;;;12.77;11.50;;;;;;;23.17;67.14;100580.78;5084520;28;20016;-69
2021/07/16 03:39:28;;;;;;;12.77;11.50;;;;;;;23.39;66.32;100578.59;5084485;28;20115;-69
2021/07/16 03:41:54;;;;;;;12.70;11.30;;;;;;;23.58;65.75;100576.66;5084386;28;20029;-69
2021/07/16 03:44:19;;;;;;;15.40;11.15;;;;;;;23.81;65.41;100577.88;5082938;28;20036;-68
2021/07/16 03:46:44;;;;;;;14.00;11.00;;;;;;;24.03;64.33;100587.13;5084376;28;20032;-68
2021/07/16 03:49:10;;;;;;;18.17;11.25;;;;;;;24.27;63.92;100583.91;5082853;28;20009;-68
2021/07/16 03:51:36;;;;;;;11.30;10.25;;;;;;;24.50;63.21;100586.91;5084045;28;20021;-68
2021/07/16 03:54:02;;;;;;;13.40;11.80;;;;;;;24.73;62.53;100582.72;5083903;28;20119;-69
2021/07/16 03:56:27;;;;;;;13.18;11.25;;;;;;;24.85;61.70;100588.19;5084414;28;20157;-67
2021/07/16 03:58:52;;;;;;;12.48;10.52;;;;;;;24.96;60.99;100579.53;5082594;28;20508;-67
2021/07/16 04:01:19;;;;;;;12.30;11.20;;;;;;;25.19;61.52;100591.25;5084064;28;20155;-69
2021/07/16 04:03:44;;;;;;;12.80;11.45;;;;;;;25.47;60.00;100594.69;5083871;28;20466;-68
2021/07/16 04:06:10;;;;;;;11.07;10.02;;;;;;;25.69;59.07;100587.91;5083756;28;20036;-68
2021/07/16 04:08:37;;;;;;;12.23;10.88;;;;;;;25.92;58.04;100585.47;5082854;28;20118;-68
2021/07/16 04:11:03;;;;;;;12.50;10.65;;;;;;;26.19;57.44;100580.91;5083853;28;20032;-68
2021/07/16 04:13:29;;;;;;;11.57;10.48;;;;;;;26.52;56.64;100579.44;5083636;28;20074;-67
2021/07/16 04:15:54;;;;;;;13.77;10.98;;;;;;;26.81;55.52;100584.44;5083526;28;20202;-67
2021/07/16 04:18:19;;;;;;;12.50;11.30;;;;;;;26.95;54.66;100590.53;5083637;28;20039;-67
2021/07/16 04:20:45;;;;;;;12.50;11.20;;;;;;;27.13;54.06;100590.97;5083619;28;20072;-68
2021/07/16 04:23:10;;;;;;;11.05;9.88;;;;;;;27.38;53.36;100585.59;5083686;28;20036;-68
2021/07/16 04:25:36;;;;;;;10.90;9.90;;;;;;;27.63;52.88;100589.00;5083519;28;20032;-68
2021/07/16 04:28:03;;;;;;;12.60;10.10;;;;;;;27.71;51.49;100598.16;5083650;28;20071;-69
2021/07/16 04:30:30;;;;;;;11.18;10.15;;;;;;;27.79;51.18;100592.19;5083744;28;20070;-69
2021/07/16 04:32:57;;;;;;;12.30;10.77;;;;;;;27.77;51.04;100594.13;5083546;28;20025;-68
2021/07/16 04:35:23;;;;;;;12.02;10.82;;;;;;;27.92;51.02;100596.56;5082137;28;20032;-68
2021/07/16 04:37:48;;;;;;;11.77;10.57;;;;;;;28.08;50.14;100599.69;5082185;28;20033;-68
2021/07/16 04:40:16;;;;;;;13.25;9.70;;;;;;;28.17;50.00;100591.91;5083615;28;20031;-67
2021/07/16 04:42:42;;;;;;;11.70;9.65;;;;;;;28.38;49.56;100594.69;5083364;28;20020;-68
2021/07/16 04:45:09;;;;;;;11.82;10.63;;;;;;;28.50;48.85;100600.00;5083524;28;20028;-66
2021/07/16 04:47:35;;;;;;;10.90;9.90;;;;;;;28.55;48.62;100597.78;5083376;28;20036;-69
2021/07/16 04:50:00;;;;;;;11.38;10.27;;;;;;;28.69;48.14;100602.84;5083303;28;20025;-65
2021/07/16 04:52:25;;;;;;;11.80;10.70;;;;;;;28.98;47.91;100601.41;5083398;28;20612;-69
2021/07/16 04:54:51;;;;;;;11.60;10.40;;;;;;;29.26;47.23;100612.47;5083133;28;20049;-67
2021/07/16 04:57:16;;;;;;;14.63;10.82;;;;;;;29.50;46.57;100616.69;5088661;28;20036;-67
2021/07/16 04:59:42;;;;;;;10.98;9.88;;;;;;;29.83;45.60;100615.72;5089994;28;20103;-67
2021/07/16 05:02:07;;;;;;;13.75;9.85;;;;;;;30.00;45.53;100617.75;5090044;28;20027;-65
2021/07/16 05:04:34;;;;;;;11.02;9.73;;;;;;;30.28;44.95;100625.19;5089881;28;20075;-67
2021/07/16 05:06:59;;;;;;;10.60;9.65;;;;;;;30.80;43.74;100619.66;5089914;28;20031;-67
2021/07/16 05:09:25;;;;;;;11.75;10.65;;;;;;;30.95;42.75;100621.06;5090006;28;20025;-68
2021/07/16 05:11:51;;;;;;;11.23;10.13;;;;;;;30.78;42.65;100610.91;5089845;28;20122;-69
2021/07/16 05:14:17;;;;;;;10.57;9.63;;;;;;;30.43;42.92;100623.81;5090039;28;20090;-69
2021/07/16 05:16:42;;;;;;;12.65;11.35;;;;;;;30.00;43.40;100628.47;5089812;28;20143;-68
2021/07/16 05:19:08;;;;;;;11.73;10.63;;;;;;;29.86;44.04;100626.19;5089948;28;20393;-68
2021/07/16 05:21:33;;;;;;;11.73;10.68;;;;;;;29.91;44.10;100624.78;5089919;28;20492;-68
2021/07/16 05:23:59;;;;;;;11.60;10.05;;;;;;;30.17;43.91;100631.50;5089739;28;20088;-67
2021/07/16 05:26:25;;;;;;;12.68;11.38;;;;;;;30.35;42.91;100630.88;5089933;28;20491;-67
2021/07/16 05:28:50;;;;;;;12.32;11.18;;;;;;;30.11;42.96;100640.91;5090046;28;20028;-67
2021/07/16 05:31:17;;;;;;;12.55;11.38;;;;;;;29.60;44.17;100638.16;5089725;28;20024;-67
2021/07/16 05:33:43;;;;;;;12.43;11.30;;;;;;;29.54;44.87;100641.31;5089504;28;20028;-67
2021/07/16 05:36:09;;;;;;;13.18;11.48;;;;;;;29.65;44.46;100646.63;5089810;28;20032;-67
2021/07/16 05:38:34;;;;;;;13.00;11.70;;;;;;;29.62;44.53;100646.88;5089891;28;20025;-68
2021/07/16 05:41:00;;;;;;;12.50;11.30;;;;;;;29.66;44.66;100653.69;5089773;28;20027;-67
2021/07/16 05:43:26;;;;;;;12.52;11.32;;;;;;;29.65;44.62;100646.63;5089851;28;20405;-68
2021/07/16 05:45:51;;;;;;;13.13;11.82;;;;;;;29.56;44.96;100640.22;5089830;28;20499;-68
2021/07/16 05:48:17;;;;;;;12.18;11.07;;;;;;;29.58;44.67;100650.81;5089714;28;20020;-68
2021/07/16 05:50:46;;;;;;;11.65;10.65;;;;;;;29.56;44.87;100658.09;5089506;28;20027;-68
2021/07/16 05:53:11;;;;;;;12.27;11.20;;;;;;;29.63;44.78;100653.94;5089466;28;20029;-68
2021/07/16 05:55:37;;;;;;;12.40;11.27;;;;;;;29.60;44.23;100656.03;5089810;28;20041;-68
2021/07/16 05:58:03;;;;;;;12.35;11.27;;;;;;;29.65;44.49;100651.97;5089466;28;20036;-68
2021/07/16 06:00:29;;;;;;;12.13;10.90;;;;;;;29.69;44.30;100652.56;5088195;28;20024;-68
2021/07/16 06:02:55;;;;;;;12.05;10.98;;;;;;;29.80;44.29;100656.97;5089665;28;20032;-67
2021/07/16 06:05:20;;;;;;;13.07;11.80;;;;;;;29.89;43.81;100664.19;5089491;28;20028;-67
2021/07/16 06:07:46;;;;;;;12.88;11.63;;;;;;;29.80;43.75;100657.84;5086893;28;20468;-68
2021/07/16 06:10:12;;;;;;;12.45;11.15;;;;;;;29.87;44.08;100665.31;5086098;28;20020;-68
2021/07/16 06:12:38;;;;;;;12.52;11.32;;;;;;;30.05;44.01;100663.72;5086181;28;20024;-69
2021/07/16 06:15:06;;;;;;;12.10;10.98;;;;;;;30.27;43.54;100656.47;5086251;28;20024;-67
2021/07/16 06:17:32;;;;;;;12.02;10.85;;;;;;;30.59;42.57;100670.66;5086278;28;20020;-67
2021/07/16 06:20:00;;;;;;;12.35;11.25;;;;;;;30.67;43.00;100672.66;5086319;28;20078;-68
2021/07/16 06:22:25;;;;;;;12.20;10.95;;;;;;;31.28;41.97;100665.34;5086335;28;20085;-68
2021/07/16 06:24:51;;;;;;;11.93;10.93;;;;;;;31.15;41.39;100662.94;5085978;28;20025;-67
2021/07/16 06:27:16;;;;;;;11.95;10.82;;;;;;;31.01;42.03;100671.41;5086047;28;20017;-67
2021/07/16 06:29:42;;;;;;;12.00;10.90;;;;;;;31.47;42.23;100665.50;5086168;28;20038;-67
2021/07/16 06:32:07;;;;;;;12.40;11.20;;;;;;;32.00;40.19;100673.94;5085888;28;20502;-67
2021/07/16 06:34:33;;;;;;;12.27;11.27;;;;;;;32.06;40.16;100683.25;5085868;28;20012;-68
2021/07/16 06:36:58;;;;;;;11.77;10.75;;;;;;;32.28;40.05;100679.34;5085975;28;20055;-68
2021/07/16 06:39:24;;;;;;;12.70;11.50;;;;;;;32.54;38.85;100685.88;5086006;28;20104;-68
2021/07/16 06:41:50;;;;;;;11.77;10.52;;;;;;;32.54;38.94;100681.34;5085861;28;20489;-68
2021/07/16 06:44:16;;;;;;;12.32;10.88;;;;;;;32.72;38.84;100683.19;5086021;28;20025;-68
2021/07/16 06:46:41;;;;;;;12.25;11.05;;;;;;;32.79;38.14;100681.59;5085930;28;20025;-68
2021/07/16 06:49:07;;;;;;;12.10;11.00;;;;;;;32.66;38.59;100684.66;5085713;28;20421;-68
2021/07/16 06:51:33;;;;;;;12.27;11.18;;;;;;;32.75;38.64;100682.91;5085637;28;20028;-68
2021/07/16 06:54:00;;;;;;;11.48;10.30;;;;;;;33.00;38.53;100692.06;5085240;28;20040;-68
2021/07/16 06:56:25;;;;;;;12.98;11.30;;;;;;;33.38;37.47;100689.19;5085480;28;20439;-68
2021/07/16 06:58:52;;;;;;;12.32;11.23;;;;;;;33.31;37.71;100687.28;5085323;28;20021;-68
2021/07/16 07:01:18;;;;;;;11.90;10.85;;;;;;;33.37;37.24;100692.03;5085333;28;20032;-68
2021/07/16 07:03:44;;;;;;;11.95;10.95;;;;;;;33.21;37.19;100695.44;5084953;28;20023;-67
2021/07/16 07:06:09;;;;;;;11.73;10.60;;;;;;;33.08;37.87;100704.75;5085053;28;20016;-67
2021/07/16 07:08:35;;;;;;;11.65;10.65;;;;;;;33.28;37.74;100709.94;5084653;28;20055;-66
2021/07/16 07:11:00;;;;;;;12.68;11.38;;;;;;;33.49;37.11;100711.44;5084638;28;20027;-68
2021/07/16 07:13:26;;;;;;;12.05;10.95;;;;;;;33.55;37.08;100708.13;5084568;28;20029;-68
2021/07/16 07:15:51;;;;;;;12.50;11.40;;;;;;;33.46;37.30;100711.75;5084680;28;20087;-68
2021/07/16 07:18:17;;;;;;;12.40;11.10;;;;;;;33.29;37.35;100717.03;5084653;28;20070;-68
2021/07/16 07:20:42;;;;;;;12.35;11.25;;;;;;;33.19;37.50;100711.72;5084227;28;20076;-68
2021/07/16 07:23:08;;;;;;;12.50;11.20;;;;;;;33.03;37.40;100717.78;5084541;28;20085;-67
2021/07/16 07:25:34;;;;;;;12.48;11.38;;;;;;;32.78;38.03;100720.22;5084634;28;20025;-67
2021/07/16 07:27:59;;;;;;;12.82;11.63;;;;;;;32.97;38.65;100718.38;5084340;28;20056;-67
2021/07/16 07:30:25;;;;;;;12.90;11.70;;;;;;;33.52;37.43;100719.19;5084381;28;20025;-68
2021/07/16 07:32:51;;;;;;;12.13;10.95;;;;;;;33.63;37.58;100721.66;5083902;28;20028;-67
2021/07/16 07:35:17;;;;;;;13.10;11.80;;;;;;;33.72;37.20;100727.13;5083991;28;20028;-68
2021/07/16 07:37:42;;;;;;;13.40;12.23;;;;;;;33.58;37.55;100725.81;5084375;28;20035;-68
2021/07/16 07:40:12;;;;;;;13.05;11.95;;;;;;;33.26;38.12;100728.09;5084187;28;20103;-68
2021/07/16 07:42:37;;;;;;;13.20;11.88;;;;;;;32.98;38.45;100736.19;5084269;28;20023;-68
2021/07/16 07:45:04;;;;;;;13.18;11.82;;;;;;;32.82;38.71;100732.34;5084059;28;20044;-68
2021/07/16 07:47:33;;;;;;;13.23;12.02;;;;;;;32.54;39.05;100735.09;5084390;28;20026;-68
2021/07/16 07:50:00;;;;;;;13.43;12.10;;;;;;;32.76;39.22;100731.13;5084172;28;20090;-68
2021/07/16 07:52:26;;;;;;;12.68;11.55;;;;;;;33.00;39.16;100742.28;5083928;28;20067;-68
2021/07/16 07:54:52;;;;;;;14.73;12.45;;;;;;;33.09;39.27;100752.16;5083594;28;20056;-67
2021/07/16 07:57:17;;;;;;;13.77;12.18;;;;;;;33.19;39.13;100754.75;5084060;28;20024;-68
2021/07/16 07:59:43;;;;;;;13.23;12.10;;;;;;;33.13;38.63;100753.53;5084001;28;20112;-70
2021/07/16 08:02:09;;;;;;;12.70;11.40;;;;;;;33.22;38.89;100756.28;5084243;28;20025;-68
2021/07/16 08:04:38;;;;;;;12.85;11.65;;;;;;;33.88;38.28;100756.00;5083914;28;20149;-69
2021/07/16 08:07:05;;;;;;;12.63;11.52;;;;;;;34.54;36.73;100758.16;5083545;28;20422;-68
2021/07/16 08:09:31;;;;;;;13.00;11.80;;;;;;;34.76;36.14;100753.22;5083470;28;20031;-68
2021/07/16 08:11:58;;;;;;;12.88;11.63;;;;;;;34.83;36.21;100762.34;5083581;28;20025;-68
2021/07/16 08:14:24;;;;;;;13.07;11.98;;;;;;;35.10;35.46;100763.03;5083573;28;20024;-68
2021/07/16 08:16:50;;;;;;;13.85;12.50;;;;;;;35.13;35.20;100761.03;5083582;28;20025;-68
2021/07/16 08:19:17;;;;;;;13.02;11.80;;;;;;;35.42;35.10;100763.25;5083480;28;20024;-68
2021/07/16 08:21:52;;;;;;;12.95;11.77;;;;;;;35.29;34.79;100760.22;5083589;28;20023;-68
2021/07/16 08:24:18;;;;;;;13.52;12.43;;;;;;;35.10;35.13;100765.75;5083502;28;20032;-67
2021/07/16 08:26:46;;;;;;;14.35;12.77;;;;;;;34.72;35.45;100774.28;5083569;28;20393;-68
2021/07/16 08:29:11;;;;;;;14.30;12.95;;;;;;;34.32;36.23;100763.16;5083683;28;20078;-68
2021/07/16 08:31:38;;;;;;;13.50;12.40;;;;;;;34.08;37.03;100775.44;5083085;28;20424;-68
2021/07/16 08:34:04;;;;;;;13.32;12.23;;;;;;;34.39;36.87;100768.75;5083582;28;20024;-68
2021/07/16 08:36:29;;;;;;;12.10;10.98;;;;;;;35.22;36.29;100765.44;5083537;28;20404;-68
2021/07/16 08:38:55;;;;;;;12.88;11.60;;;;;;;36.07;35.02;100768.75;5083530;28;20052;-68
2021/07/16 08:41:21;;;;;;;13.75;12.55;;;;;;;36.78;32.48;100769.84;5083388;28;20016;-68
2021/07/16 08:43:48;;;;;;;13.43;12.15;;;;;;;36.71;31.84;100760.75;5083505;28;20034;-68
2021/07/16 08:46:14;;;;;;;12.70;11.60;;;;;;;36.58;32.04;100766.72;5083239;28;20024;-68
2021/07/16 08:48:40;;;;;;;13.35;12.25;;;;;;;36.52;32.07;100770.97;5083521;28;20028;-68
2021/07/16 08:51:08;;;;;;;13.13;11.80;;;;;;;36.55;32.02;100764.38;5083602;28;20020;-69
2021/07/16 08:53:33;;;;;;;13.18;11.88;;;;;;;36.91;31.83;100763.00;5081581;28;20083;-68
2021/07/16 08:55:59;;;;;;;13.45;12.20;;;;;;;37.33;31.42;100763.56;5083433;28;20024;-69
2021/07/16 08:58:25;;;;;;;13.07;11.85;;;;;;;37.61;30.93;100762.13;5083371;28;20024;-69
2021/07/16 09:00:51;;;;;;;12.40;11.30;;;;;;;37.64;30.06;100765.31;5083220;28;20502;-69
2021/07/16 09:03:18;;;;;;;13.55;11.85;;;;;;;37.54;29.25;100764.75;5083295;28;20023;-69
2021/07/16 09:05:44;;;;;;;12.32;11.32;;;;;;;37.80;30.05;100775.16;5083473;28;20027;-68
2021/07/16 09:08:21;;;;;;;13.07;11.98;;;;;;;38.55;29.29;100762.59;5083468;28;20084;-69
2021/07/16 09:10:52;;;;;;;13.15;12.02;;;;;;;39.24;28.68;100767.72;5083391;28;20020;-68
2021/07/16 09:13:18;;;;;;;;;;;;;;;39.69;27.54;100770.19;5083641;28;20477;-69
2021/07/16 09:15:56;;;;;;;11.68;10.68;;;;;;;40.43;26.67;100760.78;5083034;28;19908;-69
2021/07/16 09:18:27;;;;;;;12.82;11.73;;;;;;;40.44;25.77;100768.72;5083395;28;20348;-69
2021/07/16 09:21:02;;;;;;;11.85;10.85;;;;;;;40.18;25.97;100764.84;5083086;28;20362;-69
2021/07/16 09:23:44;;;;;;;13.00;11.90;;;;;;;39.51;25.44;100770.66;5083360;28;20448;-69
2021/07/16 09:26:15;;;;;;;12.63;11.43;;;;;;;38.23;27.00;100768.28;5082843;28;20081;-69
2021/07/16 09:28:41;;;;;;;;;;;;;;;37.43;28.85;100771.44;5083312;28;20136;-69
2021/07/16 09:31:24;;;;;;;12.32;11.32;;;;;;;38.01;29.19;100770.03;5082763;28;19962;-69
2021/07/16 09:33:56;;;;;;;11.73;10.63;;;;;;;39.20;27.55;100767.31;5082569;28;20051;-69
2021/07/16 09:36:29;;;;;;;11.65;10.65;;;;;;;40.01;25.95;100770.59;5082492;28;20035;-69
2021/07/16 09:39:09;;;;;;;10.40;9.57;;;;;;;40.22;24.99;100768.84;5082324;28;20024;-68
2021/07/16 09:41:51;;;;;;;11.23;10.30;;;;;;;39.86;25.06;100778.88;5082707;28;20025;-68
2021/07/16 09:44:28;;;;;;;13.23;11.98;;;;;;;39.29;25.91;100774.28;5086266;28;20036;-68
2021/07/16 09:47:13;;;;;;;11.63;10.73;;;;;;;39.62;25.85;100769.34;5086697;28;20036;-68
2021/07/16 09:49:39;;;;;;;11.73;10.48;;;;;;;39.62;24.64;100772.03;5086723;28;20024;-68
2021/07/16 09:52:13;;;;;;;12.23;11.13;;;;;;;38.04;25.86;100766.94;5086541;28;20297;-69
2021/07/16 09:54:58;;;;;;;11.55;10.65;;;;;;;36.45;29.47;100770.00;5086085;28;20055;-69
2021/07/16 09:57:44;;;;;;;10.05;9.20;;;;;;;35.45;29.53;100775.59;5086051;28;20112;-68
2021/07/16 10:00:24;;;;;;;9.85;8.95;;;;;;;36.20;28.23;100773.59;5086301;28;20032;-68
2021/07/16 10:02:51;;;;;;;9.27;8.48;;;;;;;37.40;27.72;100777.22;5086108;28;20021;-68
2021/07/16 10:05:20;;;;;;;8.95;8.25;;;;;;;38.50;26.10;100771.31;5085909;28;20020;-68
2021/07/16 10:07:46;;;;;;;10.13;9.32;;;;;;;39.47;25.09;100775.66;5086290;28;20025;-68
2021/07/16 10:10:20;;;;;;;10.07;9.18;;;;;;;40.22;24.27;100771.56;5086072;28;20372;-67
2021/07/16 10:12:47;;;;;;;7.03;6.43;;;;;;;40.62;20.31;100770.91;5085852;28;20025;-66
2021/07/16 10:15:14;;;;;;;7.38;6.78;;;;;;;40.08;20.79;100776.13;5085762;28;20033;-68
2021/07/16 10:17:40;;;;;;;6.35;5.78;;;;;;;39.78;21.01;100776.34;5085816;28;20048;-67
2021/07/16 10:20:16;;;;;;;7.55;6.85;;;;;;;39.78;19.95;100771.72;5085915;28;20353;-68
2021/07/16 10:22:44;;;;;;;8.32;7.18;;;;;;;39.10;21.50;100778.44;5086006;28;20066;-68
2021/07/16 10:25:16;;;;;;;8.20;7.45;;;;;;;38.92;21.69;100776.19;5085491;28;20135;-68
2021/07/16 10:27:42;;;;;;;10.70;8.13;;;;;;;38.73;22.55;100769.50;5085894;28;20077;-68
2021/07/16 10:30:18;;;;;;;8.40;7.63;;;;;;;38.50;22.18;100771.31;5085620;28;20076;-68
2021/07/16 10:32:48;;;;;;;6.28;5.60;;;;;;;38.27;20.93;100774.16;5085662;28;20106;-67
2021/07/16 10:35:17;;;;;;;6.22;5.57;;;;;;;37.74;19.75;100780.47;5085403;28;20020;-68
2021/07/16 10:37:44;;;;;;;5.57;4.80;;;;;;;37.18;19.54;100779.72;5085196;28;20024;-68
2021/07/16 10:40:43;;;;;;;7.07;6.40;;;;;;;36.88;20.93;100785.00;5085756;28;20028;-68
2021/07/16 10:43:29;;;;;;;8.70;7.90;;;;;;;36.85;22.85;100785.34;5085321;28;20186;-67
2021/07/16 10:45:56;;;;;;;7.70;6.97;;;;;;;37.16;23.55;100784.50;5077952;28;20094;-68
2021/07/16 10:48:36;;;;;;;8.45;7.53;;;;;;;37.25;22.92;100779.88;5085386;28;20017;-69
2021/07/16 10:51:03;;;;;;;6.20;5.53;;;;;;;36.90;21.12;100788.38;5085389;28;20017;-67
2021/07/16 10:53:29;;;;;;;4.72;4.07;;;;;;;36.50;20.87;100788.38;5084568;28;20292;-69
2021/07/16 10:55:54;;;;;;;5.30;4.82;;;;;;;36.31;20.64;100790.50;5084847;28;20028;-68
2021/07/16 10:58:28;;;;;;;5.00;4.60;;;;;;;36.05;20.27;100792.41;5085242;28;20035;-68
2021/07/16 11:01:00;;;;;;;5.10;4.70;;;;;;;35.61;20.11;100790.91;5085160;28;20266;-69
2021/07/16 11:03:51;;;;;;;6.45;5.85;;;;;;;35.44;22.10;100788.22;5084934;28;20031;-68
2021/07/16 11:06:18;;;;;;;6.82;6.22;;;;;;;34.85;24.45;100792.69;5085227;28;20044;-69
2021/07/16 11:08:43;;;;;;;7.30;6.68;;;;;;;34.42;26.35;100789.97;5084999;28;20016;-69
2021/07/16 11:11:16;;;;;;;7.20;6.53;;;;;;;34.35;27.05;100783.53;5084955;28;20025;-67
2021/07/16 11:13:44;;;;;;;6.68;6.07;;;;;;;34.25;26.59;100786.38;5083731;28;20289;-69